createdAt,value
2023-02-19T00:01:24.634Z,53.85
2023-02-19T00:03:59.054Z,52.78
2023-02-19T00:06:27.685Z,53.42
2023-02-19T00:08:55.035Z,53.63
2023-02-19T00:11:24.727Z,52.22
2023-02-19T00:13:53.661Z,54.05
2023-02-19T00:16:25.677Z,54.60
2023-02-19T00:18:53.073Z,52.75
2023-02-19T00:21:20.086Z,53.38
2023-02-19T00:26:18.956Z,53.40
2023-02-19T00:28:47.014Z,52.78
2023-02-19T00:31:22.645Z,53.47
2023-02-19T00:33:51.160Z,55.88
2023-02-19T00:36:18.101Z,53.53
2023-02-19T00:41:19.251Z,54.30
2023-02-19T00:43:50.147Z,54.88
2023-02-19T00:46:28.661Z,54.55
2023-02-19T00:48:56.647Z,55.85
2023-02-19T00:51:25.775Z,56.30
2023-02-19T00:53:53.291Z,57.08
2023-02-19T00:56:20.357Z,56.63
2023-02-19T00:58:47.333Z,55.00
2023-02-19T01:03:41.258Z,54.92
2023-02-19T01:08:36.868Z,53.17
2023-02-19T01:11:05.263Z,54.60
2023-02-19T01:13:32.264Z,58.95
2023-02-19T01:18:32.074Z,56.15
2023-02-19T01:20:59.295Z,55.35
2023-02-19T01:23:26.584Z,54.20
2023-02-19T01:25:53.369Z,55.47
2023-02-19T01:28:20.085Z,56.22
2023-02-19T01:30:46.882Z,56.20
2023-02-19T01:33:13.594Z,53.92
2023-02-19T01:35:40.692Z,54.65
2023-02-19T01:38:08.371Z,55.00
2023-02-19T01:40:35.382Z,55.30
2023-02-19T01:45:35.618Z,55.40
2023-02-19T01:48:17.439Z,55.70
2023-02-19T01:50:55.811Z,54.28
2023-02-19T01:53:27.062Z,56.83
2023-02-19T01:55:58.786Z,58.08
2023-02-19T01:58:28.166Z,58.28
2023-02-19T02:00:55.166Z,56.40
2023-02-19T02:03:22.296Z,57.40
2023-02-19T02:06:09.277Z,56.90
2023-02-19T02:08:55.630Z,58.60
2023-02-19T02:11:22.498Z,61.25
2023-02-19T02:13:51.079Z,63.58
2023-02-19T02:16:44.284Z,63.85
2023-02-19T02:19:52.732Z,61.35
2023-02-19T02:22:26.799Z,61.80
2023-02-19T02:25:14.357Z,61.75
2023-02-19T02:27:52.566Z,60.97
2023-02-19T02:30:38.134Z,62.97
2023-02-19T02:33:14.752Z,60.10
2023-02-19T02:35:55.947Z,61.78
2023-02-19T02:38:28.064Z,61.30
2023-02-19T02:40:56.732Z,60.53
2023-02-19T02:43:23.986Z,61.92
2023-02-19T02:45:50.972Z,60.67
2023-02-19T02:48:28.699Z,65.53
2023-02-19T02:50:55.477Z,61.65
2023-02-19T02:53:47.707Z,61.30
2023-02-19T02:56:18.004Z,64.63
2023-02-19T02:58:46.762Z,63.60
2023-02-19T03:01:42.092Z,63.92
2023-02-19T03:04:30.918Z,64.68
2023-02-19T03:07:01.785Z,61.72
2023-02-19T03:09:41.372Z,60.45
2023-02-19T03:12:32.783Z,62.53
2023-02-19T03:15:23.293Z,59.00
2023-02-19T03:18:13.405Z,60.30
2023-02-19T03:20:44.050Z,60.65
2023-02-19T03:23:13.024Z,55.40
2023-02-19T03:25:59.611Z,56.35
2023-02-19T03:28:51.108Z,56.75
2023-02-19T03:31:21.509Z,57.53
2023-02-19T03:33:54.484Z,57.33
2023-02-19T03:36:26.095Z,56.50
2023-02-19T03:39:02.271Z,55.85
2023-02-19T03:41:58.365Z,56.67
2023-02-19T03:44:53.491Z,57.65
2023-02-19T03:47:32.596Z,56.20
2023-02-19T03:50:10.983Z,58.40
2023-02-19T03:52:46.978Z,56.10
2023-02-19T03:55:59.457Z,55.15
2023-02-19T03:58:50.089Z,55.13
2023-02-19T04:01:27.841Z,57.03
2023-02-19T04:04:12.725Z,55.63
2023-02-19T04:06:42.738Z,55.88
2023-02-19T04:09:12.432Z,54.13
2023-02-19T04:11:39.362Z,57.28
2023-02-19T04:14:21.017Z,55.83
2023-02-19T04:16:53.299Z,57.97
2023-02-19T04:19:22.482Z,58.75
2023-02-19T04:21:51.013Z,56.03
2023-02-19T04:24:38.898Z,58.17
2023-02-19T04:27:06.483Z,57.78
2023-02-19T04:29:33.337Z,56.83
2023-02-19T04:32:00.152Z,57.55
2023-02-19T04:34:27.000Z,58.13
2023-02-19T04:36:53.714Z,57.30
2023-02-19T04:39:20.454Z,59.25
2023-02-19T04:41:47.165Z,58.70
2023-02-19T04:44:14.053Z,59.80
2023-02-19T04:46:43.157Z,60.25
2023-02-19T04:49:10.215Z,59.53
2023-02-19T04:51:37.225Z,60.35
2023-02-19T04:56:30.715Z,58.90
2023-02-19T04:58:58.149Z,60.03
2023-02-19T05:01:25.152Z,59.35
2023-02-19T05:06:19.285Z,57.20
2023-02-19T05:08:46.122Z,61.10
2023-02-19T05:11:13.554Z,61.13
2023-02-19T05:13:40.726Z,61.63
2023-02-19T05:16:16.259Z,57.50
2023-02-19T05:18:45.476Z,60.65
2023-02-19T05:21:12.886Z,62.03
2023-02-19T05:23:39.818Z,60.92
2023-02-19T05:26:18.764Z,58.92
2023-02-19T05:28:47.154Z,61.88
2023-02-19T05:31:15.021Z,57.42
2023-02-19T05:33:43.161Z,58.85
2023-02-19T05:36:13.218Z,55.95
2023-02-19T05:38:40.660Z,60.00
2023-02-19T05:41:19.781Z,59.42
2023-02-19T05:43:48.412Z,57.65
2023-02-19T05:46:19.873Z,60.63
2023-02-19T05:48:48.257Z,56.53
2023-02-19T05:51:17.742Z,61.75
2023-02-19T05:53:45.539Z,57.38
2023-02-19T05:56:36.188Z,59.90
2023-02-19T05:59:14.143Z,57.72
2023-02-19T06:01:40.907Z,60.33
2023-02-19T06:04:08.649Z,57.50
2023-02-19T06:06:35.558Z,60.42
2023-02-19T06:09:02.588Z,57.08
2023-02-19T06:13:56.436Z,56.35
2023-02-19T06:18:50.428Z,55.25
2023-02-19T06:21:18.216Z,57.97
2023-02-19T06:23:45.334Z,61.30
2023-02-19T06:28:48.633Z,56.90
2023-02-19T06:31:18.233Z,59.17
2023-02-19T06:33:45.354Z,58.75
2023-02-19T06:38:40.793Z,56.47
2023-02-19T06:41:09.092Z,55.47
2023-02-19T06:43:36.800Z,57.00
2023-02-19T06:46:04.957Z,55.83
2023-02-19T06:48:32.669Z,54.70
2023-02-19T06:50:59.735Z,57.28
2023-02-19T06:55:57.179Z,55.67
2023-02-19T06:58:24.409Z,56.15
2023-02-19T07:00:51.485Z,56.10
2023-02-19T07:05:44.924Z,55.47
2023-02-19T07:08:11.620Z,54.47
2023-02-19T07:10:38.455Z,56.42
2023-02-19T07:13:05.268Z,56.63
2023-02-19T07:15:31.961Z,58.17
2023-02-19T07:17:59.646Z,59.42
2023-02-19T07:20:26.513Z,61.05
2023-02-19T07:22:53.379Z,60.25
2023-02-19T07:25:20.212Z,61.75
2023-02-19T07:27:46.933Z,59.60
2023-02-19T07:30:13.835Z,56.20
2023-02-19T07:32:45.468Z,59.30
2023-02-19T07:35:12.364Z,58.90
2023-02-19T07:37:40.900Z,58.15
2023-02-19T07:40:08.490Z,58.33
2023-02-19T07:42:35.366Z,59.42
2023-02-19T07:45:02.288Z,59.63
2023-02-19T07:47:29.779Z,60.65
2023-02-19T07:49:56.519Z,59.63
2023-02-19T07:52:23.501Z,59.90
2023-02-19T07:57:17.218Z,57.90
2023-02-19T07:59:44.039Z,59.90
2023-02-19T08:02:37.304Z,61.50
2023-02-19T08:05:05.449Z,61.30
2023-02-19T08:07:36.215Z,60.22
2023-02-19T08:10:23.379Z,59.30
2023-02-19T08:13:19.013Z,58.90
2023-02-19T08:15:46.913Z,57.47
2023-02-19T08:18:14.733Z,59.03
2023-02-19T08:20:41.592Z,56.03
2023-02-19T08:23:08.999Z,58.10
2023-02-19T08:25:38.924Z,60.22
2023-02-19T08:28:06.708Z,57.47
2023-02-19T08:30:34.429Z,55.10
2023-02-19T08:33:02.447Z,52.22
2023-02-19T08:35:29.389Z,53.33
2023-02-19T08:37:59.231Z,51.10
2023-02-19T08:40:26.797Z,50.53
2023-02-19T08:42:53.956Z,51.55
2023-02-19T08:45:20.801Z,51.17
2023-02-19T08:47:47.618Z,51.08
2023-02-19T08:50:14.517Z,50.47
2023-02-19T08:52:41.242Z,50.28
2023-02-19T08:55:08.208Z,46.47
2023-02-19T09:00:06.930Z,47.47
2023-02-19T09:02:33.774Z,48.03
2023-02-19T09:05:00.753Z,49.88
2023-02-19T09:09:54.938Z,48.53
2023-02-19T09:12:23.398Z,49.92
2023-02-19T09:14:50.442Z,52.72
2023-02-19T09:19:44.237Z,50.45
2023-02-19T09:22:10.991Z,49.45
2023-02-19T09:24:37.774Z,49.17
2023-02-19T09:27:04.713Z,53.45
2023-02-19T09:32:00.401Z,51.33
2023-02-19T09:34:29.035Z,52.08
2023-02-19T09:36:55.835Z,52.83
2023-02-19T09:39:22.702Z,53.22
2023-02-19T09:41:58.006Z,53.40
2023-02-19T09:44:37.722Z,52.92
2023-02-19T09:47:13.124Z,53.67
2023-02-19T09:49:41.814Z,51.72
2023-02-19T09:52:30.965Z,51.38
2023-02-19T09:55:02.362Z,52.17
2023-02-19T09:57:32.369Z,52.45
2023-02-19T10:00:19.834Z,53.05
2023-02-19T10:02:46.681Z,52.75
2023-02-19T10:05:15.523Z,52.53
2023-02-19T10:07:45.826Z,55.03
2023-02-19T10:10:15.330Z,54.70
2023-02-19T10:12:54.406Z,53.65
2023-02-19T10:15:25.942Z,54.00
2023-02-19T10:17:52.859Z,53.63
2023-02-19T10:22:51.350Z,51.95
2023-02-19T10:25:18.213Z,52.78
2023-02-19T10:27:44.998Z,55.88
2023-02-19T10:30:23.526Z,54.75
2023-02-19T10:33:09.773Z,55.88
2023-02-19T10:35:50.780Z,54.15
2023-02-19T10:38:20.530Z,54.25
2023-02-19T10:40:48.334Z,56.17
2023-02-19T10:43:31.139Z,52.50
2023-02-19T10:45:59.605Z,52.25
2023-02-19T10:48:36.617Z,53.17
2023-02-19T10:51:11.134Z,55.40
2023-02-19T10:53:47.589Z,53.55
2023-02-19T10:56:28.798Z,54.28
2023-02-19T10:58:55.902Z,54.35
2023-02-19T11:01:26.894Z,57.97
2023-02-19T11:04:17.992Z,57.38
2023-02-19T11:06:46.472Z,54.30
2023-02-19T11:09:35.976Z,56.65
2023-02-19T11:12:04.949Z,54.75
2023-02-19T11:14:33.594Z,55.20
2023-02-19T11:17:04.744Z,55.95
2023-02-19T11:19:36.920Z,53.78
2023-02-19T11:22:20.959Z,55.00
2023-02-19T11:24:56.658Z,55.55
2023-02-19T11:27:25.317Z,54.00
2023-02-19T11:29:52.113Z,58.65
2023-02-19T11:32:26.734Z,56.72
2023-02-19T11:35:18.622Z,59.67
2023-02-19T11:37:58.719Z,57.05
2023-02-19T11:40:41.139Z,59.45
2023-02-19T11:43:23.322Z,60.20
2023-02-19T11:46:09.597Z,57.22
2023-02-19T11:48:49.091Z,57.95
2023-02-19T11:51:36.552Z,58.03
2023-02-19T11:54:21.993Z,56.75
2023-02-19T11:57:01.657Z,56.10
2023-02-19T12:02:47.420Z,54.28
2023-02-19T12:05:33.911Z,56.65
2023-02-19T12:08:30.398Z,55.83
2023-02-19T12:11:14.348Z,55.22
2023-02-19T12:14:09.114Z,55.55
2023-02-19T12:16:54.752Z,54.05
2023-02-19T12:19:44.488Z,54.33
2023-02-19T12:22:26.004Z,53.03
2023-02-19T12:25:11.540Z,52.60
2023-02-19T12:27:54.544Z,53.42
2023-02-19T12:30:39.493Z,53.38
2023-02-19T12:33:27.480Z,50.65
2023-02-19T12:36:27.666Z,53.50
2023-02-19T12:39:12.906Z,51.40
2023-02-19T12:41:50.206Z,52.65
2023-02-19T12:44:28.578Z,53.20
2023-02-19T12:47:01.427Z,50.60
2023-02-19T12:49:45.175Z,50.97
2023-02-19T12:52:27.204Z,51.35
2023-02-19T12:54:58.079Z,52.65
2023-02-19T12:57:32.927Z,51.10
2023-02-19T13:00:23.721Z,49.00
2023-02-19T13:02:58.908Z,49.05
2023-02-19T13:05:47.867Z,48.72
2023-02-19T13:08:42.050Z,49.30
2023-02-19T13:11:20.977Z,47.10
2023-02-19T13:14:21.647Z,47.40
2023-02-19T13:16:54.443Z,47.47
2023-02-19T13:19:21.361Z,46.55
2023-02-19T13:24:41.567Z,47.60
2023-02-19T13:27:17.570Z,47.83
2023-02-19T13:29:52.121Z,45.85
2023-02-19T13:32:31.453Z,45.88
2023-02-19T13:35:55.328Z,45.15
2023-02-19T13:38:23.276Z,47.33
2023-02-19T13:41:00.235Z,45.78
2023-02-19T13:43:28.753Z,45.33
2023-02-19T13:46:01.992Z,45.78
2023-02-19T13:51:16.061Z,44.28
2023-02-19T13:53:44.616Z,45.28
2023-02-19T13:56:30.064Z,45.50
2023-02-19T13:59:01.555Z,44.35
2023-02-19T14:01:51.508Z,46.05
2023-02-19T14:04:57.162Z,44.75
2023-02-19T14:07:50.488Z,41.80
2023-02-19T14:10:55.502Z,44.22
2023-02-19T14:16:33.270Z,44.97
2023-02-19T14:19:00.084Z,43.38
2023-02-19T14:21:38.758Z,43.50
2023-02-19T14:24:14.303Z,43.17
2023-02-19T14:26:41.866Z,44.53
2023-02-19T14:29:13.842Z,43.28
2023-02-19T14:31:44.415Z,43.53
2023-02-19T14:34:22.783Z,43.92
2023-02-19T14:37:01.541Z,42.38
2023-02-19T14:39:36.432Z,44.42
2023-02-19T14:42:07.749Z,43.00
2023-02-19T14:44:57.208Z,45.15
2023-02-19T14:47:26.288Z,45.10
2023-02-19T14:49:57.719Z,43.97
2023-02-19T14:52:30.489Z,45.67
2023-02-19T14:55:02.159Z,45.33
2023-02-19T14:57:32.803Z,43.10
2023-02-19T15:00:01.719Z,43.95
2023-02-19T15:02:31.056Z,43.25
2023-02-19T15:04:58.578Z,43.88
2023-02-19T15:07:30.228Z,44.17
2023-02-19T15:10:05.004Z,45.10
2023-02-19T15:12:41.173Z,44.10
2023-02-19T15:15:08.971Z,44.35
2023-02-19T15:17:40.849Z,46.25
2023-02-19T15:20:12.851Z,45.97
2023-02-19T15:22:41.583Z,45.80
2023-02-19T15:25:12.231Z,47.80
2023-02-19T15:27:39.104Z,47.15
2023-02-19T15:32:55.681Z,44.85
2023-02-19T15:35:24.254Z,46.78
2023-02-19T15:37:52.134Z,47.72
2023-02-19T15:40:20.014Z,45.92
2023-02-19T15:42:47.721Z,48.05
2023-02-19T15:45:22.175Z,46.92
2023-02-19T15:48:02.728Z,46.83
2023-02-19T15:50:34.524Z,46.85
2023-02-19T15:53:07.291Z,46.25
2023-02-19T15:55:39.433Z,44.17
2023-02-19T15:58:23.488Z,46.47
2023-02-19T16:01:20.411Z,46.97
2023-02-19T16:03:48.307Z,46.63
2023-02-19T16:06:16.839Z,46.63
2023-02-19T16:09:07.080Z,47.35
2023-02-19T16:11:53.630Z,46.70
2023-02-19T16:14:37.253Z,46.80
2023-02-19T16:17:23.035Z,45.83
2023-02-19T16:19:59.570Z,47.83
2023-02-19T16:22:29.344Z,50.45
2023-02-19T16:24:58.844Z,52.25
2023-02-19T16:27:37.077Z,54.40
2023-02-19T16:30:25.432Z,52.53
2023-02-19T16:33:26.575Z,53.28
2023-02-19T16:35:53.352Z,53.03
2023-02-19T16:38:20.980Z,54.65
2023-02-19T16:40:51.004Z,53.50
2023-02-19T16:43:39.576Z,55.67
2023-02-19T16:46:10.757Z,52.30
2023-02-19T16:48:38.486Z,52.25
2023-02-19T16:51:07.106Z,52.50
2023-02-19T16:53:34.385Z,53.00
2023-02-19T16:56:01.341Z,51.63
2023-02-19T17:00:56.081Z,51.17
2023-02-19T17:03:24.808Z,51.47
2023-02-19T17:05:52.279Z,49.33
2023-02-19T17:08:37.002Z,51.90
2023-02-19T17:11:06.419Z,50.95
2023-02-19T17:13:33.355Z,53.08
2023-02-19T17:18:27.024Z,49.97
2023-02-19T17:23:24.552Z,52.38
2023-02-19T17:25:51.504Z,52.53
2023-02-19T17:28:18.422Z,55.03
2023-02-19T17:30:45.184Z,52.92
2023-02-19T17:33:12.012Z,53.72
2023-02-19T17:35:38.876Z,54.50
2023-02-19T17:38:09.608Z,55.60
2023-02-19T17:40:37.481Z,55.45
2023-02-19T17:43:05.464Z,55.70
2023-02-19T17:45:32.980Z,52.83
2023-02-19T17:48:00.112Z,53.85
2023-02-19T17:50:30.928Z,53.53
2023-02-19T17:52:58.159Z,52.28
2023-02-19T17:55:25.503Z,51.88
2023-02-19T17:57:53.174Z,52.95
2023-02-19T18:00:23.058Z,52.78
2023-02-19T18:02:49.909Z,51.35
2023-02-19T18:05:17.269Z,51.53
2023-02-19T18:07:45.600Z,51.80
2023-02-19T18:10:13.043Z,49.80
2023-02-19T18:12:40.388Z,49.97
2023-02-19T18:15:08.401Z,48.45
2023-02-19T18:17:35.646Z,47.88
2023-02-19T18:20:04.680Z,50.15
2023-02-19T18:22:32.322Z,48.08
2023-02-19T18:24:59.319Z,48.15
2023-02-19T18:29:54.930Z,47.78
2023-02-19T18:32:23.425Z,46.65
2023-02-19T18:34:55.934Z,48.30
2023-02-19T18:37:24.755Z,47.47
2023-02-19T18:39:52.364Z,47.35
2023-02-19T18:42:21.353Z,47.22
2023-02-19T18:44:49.409Z,50.25
2023-02-19T18:47:17.034Z,48.13
2023-02-19T18:49:48.157Z,48.25
2023-02-19T18:52:15.835Z,48.78
2023-02-19T18:54:43.312Z,47.90
2023-02-19T18:57:10.125Z,52.47
2023-02-19T18:59:36.836Z,50.13
2023-02-19T19:02:06.350Z,51.80
2023-02-19T19:04:33.547Z,52.42
2023-02-19T19:07:00.307Z,51.35
2023-02-19T19:09:27.157Z,49.80
2023-02-19T19:11:54.763Z,54.65
2023-02-19T19:14:21.630Z,53.03
2023-02-19T19:16:48.392Z,54.92
2023-02-19T19:19:15.949Z,53.25
2023-02-19T19:21:42.821Z,52.58
2023-02-19T19:24:09.730Z,55.78
2023-02-19T19:29:04.334Z,52.83
2023-02-19T19:31:35.940Z,51.45
2023-02-19T19:34:04.390Z,55.72
2023-02-19T19:36:31.180Z,55.47
2023-02-19T19:38:57.892Z,54.67
2023-02-19T19:41:24.893Z,53.55
2023-02-19T19:43:51.973Z,53.92
2023-02-19T19:46:20.298Z,56.95
2023-02-19T19:48:48.963Z,52.78
2023-02-19T19:51:16.897Z,54.58
2023-02-19T19:53:46.343Z,52.15
2023-02-19T19:56:13.164Z,53.88
2023-02-19T19:58:40.332Z,53.50
2023-02-19T20:01:07.208Z,56.80
2023-02-19T20:03:33.994Z,53.22
2023-02-19T20:06:00.819Z,54.90
2023-02-19T20:08:27.638Z,52.83
2023-02-19T20:10:54.451Z,53.65
2023-02-19T20:13:26.448Z,52.25
2023-02-19T20:15:53.391Z,53.25
2023-02-19T20:20:48.344Z,54.20
2023-02-19T20:23:15.168Z,54.17
2023-02-19T20:25:41.984Z,54.53
2023-02-19T20:28:08.787Z,54.95
2023-02-19T20:30:37.167Z,53.60
2023-02-19T20:33:04.043Z,53.55
2023-02-19T20:35:31.821Z,53.90
2023-02-19T20:37:58.577Z,53.58
2023-02-19T20:40:27.730Z,53.50
2023-02-19T20:42:54.700Z,53.53
2023-02-19T20:47:48.761Z,51.42
2023-02-19T20:50:18.518Z,53.75
2023-02-19T20:52:46.326Z,53.92
2023-02-19T20:55:13.247Z,53.92
2023-02-19T21:00:08.796Z,51.33
2023-02-19T21:02:35.627Z,54.92
2023-02-19T21:05:02.417Z,53.72
2023-02-19T21:07:30.202Z,53.80
2023-02-19T21:09:57.265Z,53.65
2023-02-19T21:12:24.093Z,55.63
2023-02-19T21:14:50.982Z,57.00
2023-02-19T21:19:44.683Z,54.15
2023-02-19T21:22:11.485Z,55.45
2023-02-19T21:24:38.310Z,55.35
2023-02-19T21:27:05.226Z,54.78
2023-02-19T21:31:58.995Z,53.97
2023-02-19T21:34:27.979Z,56.17
2023-02-19T21:36:55.638Z,56.05
2023-02-19T21:39:24.564Z,56.97
2023-02-19T21:41:51.629Z,58.15
2023-02-19T21:44:21.137Z,56.25
2023-02-19T21:46:49.781Z,57.60
2023-02-19T21:49:17.254Z,57.63
2023-02-19T21:51:45.536Z,56.33
2023-02-19T21:54:18.471Z,54.72
2023-02-19T21:56:45.577Z,57.55
2023-02-19T21:59:12.719Z,56.63
2023-02-19T22:01:42.128Z,58.40
2023-02-19T22:04:14.195Z,57.70
2023-02-19T22:06:41.333Z,57.28
2023-02-19T22:09:09.326Z,58.00
2023-02-19T22:11:36.305Z,55.80
2023-02-19T22:16:30.055Z,56.58
2023-02-19T22:18:59.168Z,56.22
2023-02-19T22:21:28.548Z,55.25
2023-02-19T22:23:55.730Z,54.40
2023-02-19T22:26:28.452Z,55.08
2023-02-19T22:28:55.926Z,54.97
2023-02-19T22:31:24.520Z,57.90
2023-02-19T22:33:52.357Z,55.33
2023-02-19T22:36:22.092Z,56.88
2023-02-19T22:38:49.509Z,54.40
2023-02-19T22:41:17.914Z,55.97
2023-02-19T22:43:45.176Z,55.22
2023-02-19T22:46:18.368Z,57.13
2023-02-19T22:48:45.651Z,54.90
2023-02-19T22:51:14.735Z,55.35
2023-02-19T22:53:48.604Z,56.63
2023-02-19T22:56:16.922Z,56.55
2023-02-19T22:58:44.409Z,55.75
2023-02-19T23:01:12.615Z,55.60
2023-02-19T23:03:52.998Z,54.30
2023-02-19T23:06:37.898Z,55.95
2023-02-19T23:09:11.121Z,57.67
2023-02-19T23:14:06.248Z,53.22
2023-02-19T23:16:35.900Z,53.58
2023-02-19T23:19:04.940Z,56.53
2023-02-19T23:21:32.641Z,55.25
2023-02-19T23:23:59.822Z,55.08
2023-02-19T23:26:26.781Z,55.28
2023-02-19T23:31:20.569Z,53.28
2023-02-19T23:33:47.397Z,56.45
2023-02-19T23:36:15.294Z,56.08
2023-02-19T23:38:45.489Z,57.78
2023-02-19T23:41:14.061Z,55.20
2023-02-19T23:43:41.073Z,56.75
2023-02-19T23:46:08.465Z,56.30
2023-02-19T23:48:35.609Z,58.13
2023-02-19T23:51:02.451Z,58.40
2023-02-19T23:53:29.387Z,56.72
2023-02-19T23:58:23.018Z,58.08
